createdAt,value
2018-04-24T00:00:31.322Z,29.60
2018-04-24T00:01:31.451Z,28.50
2018-04-24T00:02:31.372Z,29.40
2018-04-24T00:03:31.448Z,28.90
2018-04-24T00:04:31.388Z,28.90
2018-04-24T00:05:31.404Z,28.30
2018-04-24T00:06:31.433Z,29.70
2018-04-24T00:07:31.552Z,30.30
2018-04-24T00:08:31.471Z,30.40
2018-04-24T00:09:31.461Z,31.00
2018-04-24T00:10:31.476Z,31.30
2018-04-24T00:11:31.513Z,34.30
2018-04-24T00:12:31.620Z,35.50
2018-04-24T00:13:31.537Z,35.30
2018-04-24T00:14:31.544Z,36.30
2018-04-24T00:15:31.568Z,35.90
2018-04-24T00:16:31.569Z,37.00
2018-04-24T00:17:31.607Z,38.00
2018-04-24T00:18:31.835Z,36.90
2018-04-24T00:19:31.633Z,38.10
2018-04-24T00:20:31.644Z,39.50
2018-04-24T00:21:31.647Z,40.30
2018-04-24T00:22:31.676Z,41.60
2018-04-24T00:23:31.780Z,38.80
2018-04-24T00:24:31.694Z,42.00
2018-04-24T00:25:31.724Z,43.00
2018-04-24T00:26:31.726Z,42.10
2018-04-24T00:27:31.753Z,44.00
2018-04-24T00:28:31.853Z,44.20
2018-04-24T00:29:31.767Z,46.10
2018-04-24T00:30:31.793Z,44.60
2018-04-24T00:31:31.800Z,47.80
2018-04-24T00:32:31.823Z,48.10
2018-04-24T00:33:31.856Z,49.10
2018-04-24T00:34:31.999Z,47.00
2018-04-24T00:35:31.885Z,47.90
2018-04-24T00:36:31.877Z,51.00
2018-04-24T00:37:31.904Z,51.40
2018-04-24T00:38:31.907Z,50.80
2018-04-24T00:39:32.021Z,50.70
2018-04-24T00:40:31.944Z,51.90
2018-04-24T00:41:31.973Z,50.60
2018-04-24T00:42:31.979Z,51.10
2018-04-24T00:43:32.002Z,49.40
2018-04-24T00:44:32.103Z,51.60
2018-04-24T00:45:32.034Z,52.50
2018-04-24T00:46:32.055Z,51.80
2018-04-24T00:47:32.048Z,53.70
2018-04-24T00:48:32.059Z,53.40
2018-04-24T00:49:32.236Z,53.60
2018-04-24T00:50:32.111Z,55.20
2018-04-24T00:51:32.110Z,54.80
2018-04-24T00:52:32.140Z,55.20
2018-04-24T00:53:32.143Z,55.40
2018-04-24T00:54:32.253Z,55.60
2018-04-24T00:55:32.185Z,56.30
2018-04-24T00:56:32.189Z,55.50
2018-04-24T00:57:32.212Z,56.90
2018-04-24T00:58:32.234Z,58.10
2018-04-24T00:59:32.353Z,58.10
2018-04-24T01:00:32.238Z,58.20
2018-04-24T01:01:32.278Z,57.20
2018-04-24T01:02:32.284Z,59.10
2018-04-24T01:03:32.289Z,58.40
2018-04-24T01:04:32.464Z,61.20
2018-04-24T01:05:32.330Z,64.00
2018-04-24T01:06:32.343Z,62.10
2018-04-24T01:07:32.364Z,61.50
2018-04-24T01:08:32.384Z,61.10
2018-04-24T01:09:32.502Z,61.40
2018-04-24T01:10:32.389Z,63.20
2018-04-24T01:11:32.425Z,60.90
2018-04-24T01:12:32.437Z,61.50
2018-04-24T01:13:32.568Z,59.80
2018-04-24T01:14:32.477Z,63.50
2018-04-24T01:15:32.589Z,62.10
2018-04-24T01:16:32.501Z,62.70
2018-04-24T01:17:32.510Z,65.60
2018-04-24T01:18:32.530Z,62.40
2018-04-24T01:19:32.527Z,67.30
2018-04-24T01:20:32.745Z,70.20
2018-04-24T01:21:32.584Z,69.70
2018-04-24T01:22:32.579Z,68.30
2018-04-24T01:23:32.608Z,71.30
2018-04-24T01:24:32.599Z,71.60
2018-04-24T01:25:32.731Z,74.70
2018-04-24T01:26:32.649Z,74.90
2018-04-24T01:27:32.643Z,69.90
2018-04-24T01:28:32.671Z,73.80
2018-04-24T01:29:32.674Z,75.40
2018-04-24T01:30:32.695Z,72.30
2018-04-24T01:31:32.824Z,73.20
2018-04-24T01:32:32.745Z,76.80
2018-04-24T01:33:32.739Z,74.40
2018-04-24T01:34:32.765Z,75.80
2018-04-24T01:35:32.770Z,78.00
2018-04-24T01:36:32.904Z,78.50
2018-04-24T01:37:32.798Z,81.80
2018-04-24T01:38:32.820Z,79.90
2018-04-24T01:39:32.840Z,80.30
2018-04-24T01:40:32.857Z,80.30
2018-04-24T01:41:32.856Z,83.80
2018-04-24T01:42:32.981Z,81.50
2018-04-24T01:43:32.884Z,81.90
2018-04-24T01:44:32.903Z,81.30
2018-04-24T01:45:32.914Z,81.70
2018-04-24T01:46:32.929Z,80.80
2018-04-24T01:47:33.060Z,81.80
2018-04-24T01:48:32.975Z,81.20
2018-04-24T01:49:32.994Z,85.00
2018-04-24T01:50:32.993Z,82.40
2018-04-24T01:51:33.031Z,79.10
2018-04-24T01:52:33.129Z,81.10
2018-04-24T01:53:33.059Z,76.70
2018-04-24T01:54:33.058Z,81.20
2018-04-24T01:55:33.083Z,83.90
2018-04-24T01:56:33.089Z,81.90
2018-04-24T01:57:33.193Z,80.00
2018-04-24T01:58:33.118Z,80.10
2018-04-24T01:59:33.121Z,76.80
2018-04-24T02:00:33.156Z,78.10
2018-04-24T02:01:33.165Z,76.00
2018-04-24T02:02:33.336Z,75.90
2018-04-24T02:03:33.194Z,68.20
2018-04-24T02:04:33.207Z,70.20
2018-04-24T02:05:33.235Z,69.50
2018-04-24T02:06:33.241Z,69.90
2018-04-24T02:07:33.369Z,68.80
2018-04-24T02:08:33.281Z,68.00
2018-04-24T02:09:33.273Z,71.90
2018-04-24T02:10:33.310Z,69.60
2018-04-24T02:11:33.323Z,70.10
2018-04-24T02:12:33.435Z,68.20
2018-04-24T02:13:33.328Z,67.50
2018-04-24T02:14:33.344Z,69.10
2018-04-24T02:15:33.364Z,69.40
2018-04-24T02:16:33.385Z,68.70
2018-04-24T02:19:33.428Z,71.30
2018-04-24T02:20:33.436Z,69.60
2018-04-24T02:21:33.447Z,68.30
2018-04-24T02:22:33.938Z,68.60
2018-04-24T02:23:33.484Z,69.50
2018-04-24T02:24:33.498Z,67.50
2018-04-24T02:25:33.544Z,67.10
2018-04-24T02:26:33.542Z,69.40
2018-04-24T02:27:33.541Z,67.30
2018-04-24T02:28:33.817Z,67.00
2018-04-24T02:29:33.695Z,68.30
2018-04-24T02:30:33.714Z,65.40
2018-04-24T02:31:33.595Z,65.00
2018-04-24T02:32:33.739Z,66.60
2018-04-24T02:33:33.728Z,68.00
2018-04-24T02:34:33.646Z,69.40
2018-04-24T02:35:33.657Z,69.50
2018-04-24T02:36:33.671Z,69.60
2018-04-24T02:37:33.703Z,66.40
2018-04-24T02:38:33.802Z,68.40
2018-04-24T02:39:33.722Z,66.30
2018-04-24T02:43:33.990Z,66.70
2018-04-24T02:44:33.918Z,67.50
2018-04-24T02:45:33.813Z,67.90
2018-04-24T02:46:33.951Z,66.10
2018-04-24T02:47:33.970Z,67.20
2018-04-24T02:48:33.860Z,62.90
2018-04-24T02:49:34.074Z,65.60
2018-04-24T02:50:33.877Z,67.00
2018-04-24T02:51:33.918Z,68.20
2018-04-24T02:52:34.044Z,67.20
2018-04-24T02:53:33.935Z,67.20
2018-04-24T02:54:34.190Z,67.20
2018-04-24T02:55:33.967Z,66.00
2018-04-24T02:56:33.978Z,66.70
2018-04-24T02:57:33.997Z,70.70
2018-04-24T02:58:34.131Z,72.40
2018-04-24T02:59:34.139Z,75.60
2018-04-24T03:00:34.049Z,75.90
2018-04-24T03:01:34.064Z,81.90
2018-04-24T03:02:34.081Z,82.40
2018-04-24T03:03:34.079Z,79.20
2018-04-24T03:04:34.252Z,77.80
2018-04-24T03:05:34.106Z,76.80
2018-04-24T03:06:34.129Z,78.10
2018-04-24T03:07:34.155Z,78.70
2018-04-24T03:08:34.147Z,79.20
2018-04-24T03:09:34.270Z,75.70
2018-04-24T03:10:34.176Z,79.20
2018-04-24T03:11:34.196Z,80.80
2018-04-24T03:12:34.235Z,80.50
2018-04-24T03:13:34.239Z,81.60
2018-04-24T03:14:34.402Z,82.30
2018-04-24T03:15:34.273Z,81.70
2018-04-24T03:16:34.285Z,79.80
2018-04-24T03:17:34.302Z,78.90
2018-04-24T03:18:34.307Z,79.20
2018-04-24T03:19:34.482Z,83.60
2018-04-24T03:20:34.345Z,81.90
2018-04-24T03:21:34.345Z,83.90
2018-04-24T03:22:34.375Z,81.30
2018-04-24T03:23:34.383Z,83.80
2018-04-24T03:24:34.552Z,81.40
2018-04-24T03:25:34.424Z,81.40
2018-04-24T03:26:34.425Z,82.40
2018-04-24T03:27:34.427Z,82.30
2018-04-24T03:28:34.456Z,83.00
2018-04-24T03:29:34.472Z,79.70
2018-04-24T03:30:34.695Z,79.30
2018-04-24T03:31:34.499Z,82.00
2018-04-24T03:32:34.517Z,79.60
2018-04-24T03:33:34.543Z,79.60
2018-04-24T03:34:34.552Z,80.90
2018-04-24T03:35:34.657Z,80.60
2018-04-24T03:36:34.587Z,81.20
2018-04-24T03:37:34.579Z,82.90
2018-04-24T03:38:34.722Z,84.50
2018-04-24T03:39:34.607Z,82.90
2018-04-24T03:40:34.781Z,82.20
2018-04-24T03:41:34.652Z,83.90
2018-04-24T03:42:34.647Z,85.00
2018-04-24T03:43:34.680Z,85.30
2018-04-24T03:44:34.688Z,84.50
2018-04-24T03:45:34.704Z,86.00
2018-04-24T03:46:34.867Z,86.80
2018-04-24T03:47:34.739Z,87.50
2018-04-24T03:48:34.734Z,85.60
2018-04-24T03:49:34.760Z,83.60
2018-04-24T03:50:34.788Z,88.50
2018-04-24T03:51:34.952Z,87.70
2018-04-24T03:52:34.809Z,88.90
2018-04-24T03:53:34.806Z,87.90
2018-04-24T03:54:34.825Z,86.30
2018-04-24T03:56:34.868Z,86.80
2018-04-24T03:57:34.963Z,89.40
2018-04-24T03:58:34.897Z,89.70
2018-04-24T03:59:34.906Z,87.90
2018-04-24T04:00:34.918Z,87.90
2018-04-24T04:01:34.942Z,86.30
2018-04-24T04:02:35.091Z,90.30
2018-04-24T04:03:34.969Z,89.80
2018-04-24T04:04:34.976Z,90.40
2018-04-24T04:05:34.999Z,86.20
2018-04-24T04:06:35.012Z,87.40
2018-04-24T04:07:35.171Z,89.20
2018-04-24T04:08:35.034Z,87.20
2018-04-24T04:09:35.046Z,92.60
2018-04-24T04:10:35.059Z,91.60
2018-04-24T04:11:35.090Z,88.90
2018-04-24T04:12:35.195Z,88.40
2018-04-24T04:13:35.091Z,90.90
2018-04-24T04:14:35.112Z,87.10
2018-04-24T04:15:35.121Z,87.30
2018-04-24T04:16:35.140Z,90.60
2018-04-24T04:17:35.299Z,88.80
2018-04-24T04:18:35.180Z,89.50
2018-04-24T04:19:35.177Z,87.10
2018-04-24T04:20:35.204Z,87.40
2018-04-24T04:21:35.227Z,86.40
2018-04-24T04:22:35.354Z,85.00
2018-04-24T04:23:35.248Z,88.60
2018-04-24T04:24:35.269Z,88.70
2018-04-24T04:25:35.263Z,87.70
2018-04-24T04:26:35.291Z,88.20
2018-04-24T04:27:35.390Z,88.50
2018-04-24T04:28:35.329Z,89.90
2018-04-24T04:29:35.332Z,86.40
2018-04-24T04:30:35.333Z,91.00
2018-04-24T04:31:35.370Z,90.10
2018-04-24T04:32:35.539Z,89.40
2018-04-24T04:33:35.377Z,88.50
2018-04-24T04:34:35.394Z,87.30
2018-04-24T04:35:35.422Z,88.30
2018-04-24T04:36:35.427Z,87.50
2018-04-24T04:37:35.435Z,87.60
2018-04-24T04:38:35.559Z,86.80
2018-04-24T04:39:35.487Z,87.50
2018-04-24T04:40:35.495Z,87.60
2018-04-24T04:41:35.501Z,88.20
2018-04-24T04:42:35.523Z,86.60
2018-04-24T04:43:35.683Z,88.00
2018-04-24T04:44:35.554Z,91.00
2018-04-24T04:45:35.680Z,90.30
2018-04-24T04:46:35.579Z,90.50
2018-04-24T04:47:35.576Z,91.20
2018-04-24T04:48:35.702Z,90.50
2018-04-24T04:49:35.603Z,92.70
2018-04-24T04:50:35.644Z,92.30
2018-04-24T04:51:35.641Z,89.00
2018-04-24T04:52:35.667Z,91.40
2018-04-24T04:53:35.760Z,89.80
2018-04-24T04:54:35.694Z,93.50
2018-04-24T04:55:35.704Z,96.60
2018-04-24T04:56:35.714Z,93.90
2018-04-24T04:57:35.737Z,97.30
2018-04-24T04:58:35.835Z,98.00
2018-04-24T04:59:35.744Z,98.50
2018-04-24T05:00:35.761Z,99.40
2018-04-24T05:01:35.791Z,99.60
2018-04-24T05:02:35.806Z,100.10
2018-04-24T05:03:35.824Z,101.60
2018-04-24T05:04:35.937Z,103.70
2018-04-24T05:05:35.835Z,101.10
2018-04-24T05:06:35.863Z,98.10
2018-04-24T05:07:35.873Z,102.90
2018-04-24T05:08:35.870Z,96.10
2018-04-24T05:09:35.985Z,101.60
2018-04-24T05:10:35.903Z,104.30
2018-04-24T05:11:35.913Z,104.30
2018-04-24T05:12:35.939Z,105.90
2018-04-24T05:13:35.964Z,108.90
2018-04-24T05:14:36.077Z,111.30
2018-04-24T05:15:35.988Z,112.00
2018-04-24T05:16:35.998Z,114.60
2018-04-24T05:17:36.000Z,113.00
2018-04-24T05:18:36.023Z,117.30
2018-04-24T05:19:36.126Z,113.90
2018-04-24T05:20:36.055Z,119.10
2018-04-24T05:21:36.055Z,117.20
2018-04-24T05:22:36.079Z,116.00
2018-04-24T05:23:36.081Z,115.10
2018-04-24T05:24:36.201Z,117.80
2018-04-24T05:25:36.111Z,120.20
2018-04-24T05:26:36.143Z,119.20
2018-04-24T05:27:36.142Z,122.30
2018-04-24T05:28:36.164Z,121.50
2018-04-24T05:29:36.265Z,123.10
2018-04-24T05:30:36.200Z,125.30
2018-04-24T05:31:36.206Z,128.60
2018-04-24T05:32:36.209Z,130.20
2018-04-24T05:33:36.239Z,127.40
2018-04-24T05:34:36.336Z,126.10
2018-04-24T05:35:36.255Z,128.90
2018-04-24T05:36:36.274Z,124.80
2018-04-24T05:37:36.302Z,128.10
2018-04-24T05:38:36.316Z,126.50
2018-04-24T05:39:36.416Z,123.80
2018-04-24T05:40:36.321Z,126.50
2018-04-24T05:41:36.340Z,127.50
2018-04-24T05:42:36.348Z,128.50
2018-04-24T05:43:36.377Z,128.00
2018-04-24T05:44:36.391Z,125.00
2018-04-24T05:45:36.511Z,125.70
2018-04-24T05:46:36.415Z,128.00
2018-04-24T05:47:36.437Z,127.90
2018-04-24T05:48:36.458Z,127.80
2018-04-24T05:49:36.463Z,135.20
2018-04-24T05:50:36.557Z,135.90
2018-04-24T05:51:36.488Z,130.70
2018-04-24T05:52:36.507Z,143.10
2018-04-24T05:53:36.522Z,135.60
2018-04-24T05:54:36.541Z,132.40
2018-04-24T05:55:36.690Z,139.50
2018-04-24T05:56:36.555Z,141.40
2018-04-24T05:57:36.575Z,144.40
2018-04-24T05:58:36.671Z,145.60
2018-04-24T05:59:36.584Z,150.90
2018-04-24T06:00:36.598Z,146.40
2018-04-24T06:01:36.723Z,147.60
2018-04-24T06:02:36.655Z,151.50
2018-04-24T06:03:36.652Z,144.30
2018-04-24T06:04:36.673Z,153.80
2018-04-24T06:05:36.804Z,153.00
2018-04-24T06:06:36.779Z,152.50
2018-04-24T06:07:36.691Z,153.00
2018-04-24T06:08:36.811Z,151.50
2018-04-24T06:09:36.743Z,152.60
2018-04-24T06:10:36.746Z,157.90
2018-04-24T06:11:36.869Z,159.90
2018-04-24T06:12:36.762Z,162.20
2018-04-24T06:13:36.795Z,163.00
2018-04-24T06:14:36.796Z,168.00
2018-04-24T06:15:36.822Z,168.00
2018-04-24T06:16:36.932Z,166.70
2018-04-24T06:17:36.831Z,161.60
2018-04-24T06:18:36.854Z,178.70
2018-04-24T06:19:36.884Z,177.90
2018-04-24T06:20:36.896Z,182.90
2018-04-24T06:21:36.902Z,192.80
2018-04-24T06:22:36.969Z,182.90
2018-04-24T06:23:36.929Z,185.00
2018-04-24T06:24:36.954Z,189.90
2018-04-24T06:25:36.957Z,200.10
2018-04-24T06:26:36.976Z,187.80
2018-04-24T06:27:36.983Z,189.80
2018-04-24T06:28:37.045Z,192.00
2018-04-24T06:29:37.023Z,188.50
2018-04-24T06:30:37.011Z,190.90
2018-04-24T06:31:37.046Z,197.20
2018-04-24T06:32:37.174Z,197.90
2018-04-24T06:33:37.232Z,184.10
2018-04-24T06:34:37.073Z,173.40
2018-04-24T06:35:37.100Z,177.20
2018-04-24T06:36:37.105Z,176.10
2018-04-24T06:37:37.244Z,168.20
2018-04-24T06:38:37.357Z,177.50
2018-04-24T06:39:37.154Z,178.60
2018-04-24T06:40:37.171Z,181.80
2018-04-24T06:41:37.188Z,181.40
2018-04-24T06:42:37.199Z,182.10
2018-04-24T06:43:37.301Z,169.90
2018-04-24T06:44:37.213Z,162.10
2018-04-24T06:45:37.356Z,170.40
2018-04-24T06:46:37.245Z,174.50
2018-04-24T06:47:37.384Z,180.60
2018-04-24T06:48:37.379Z,193.80
2018-04-24T06:49:37.416Z,197.10
2018-04-24T06:50:37.307Z,198.70
2018-04-24T06:51:37.311Z,190.10
2018-04-24T06:52:37.341Z,193.70
2018-04-24T06:53:37.442Z,198.90
2018-04-24T06:54:37.360Z,203.20
2018-04-24T06:55:37.499Z,200.20
2018-04-24T06:56:37.391Z,195.30
2018-04-24T06:57:37.399Z,203.10
2018-04-24T06:58:37.651Z,205.70
2018-04-24T06:59:37.440Z,220.30
2018-04-24T07:00:37.457Z,210.90
2018-04-24T07:01:37.452Z,214.30
2018-04-24T07:02:37.594Z,196.40
2018-04-24T07:03:37.584Z,200.60
2018-04-24T07:04:37.498Z,201.40
2018-04-24T07:05:37.637Z,204.00
2018-04-24T07:06:37.653Z,198.00
2018-04-24T07:07:37.539Z,201.00
2018-04-24T07:08:37.651Z,201.90
2018-04-24T07:09:37.696Z,195.40
2018-04-24T07:10:37.592Z,200.50
2018-04-24T07:11:37.602Z,199.70
2018-04-24T07:12:37.616Z,208.70
2018-04-24T07:13:37.723Z,206.50
2018-04-24T07:14:37.762Z,201.80
2018-04-24T07:15:37.652Z,197.60
2018-04-24T07:16:37.792Z,189.40
2018-04-24T07:17:37.804Z,197.30
2018-04-24T07:18:37.801Z,197.30
2018-04-24T07:19:37.706Z,181.60
2018-04-24T07:20:37.733Z,182.00
2018-04-24T07:21:37.731Z,174.60
2018-04-24T07:22:37.761Z,191.20
2018-04-24T07:23:37.991Z,178.80
2018-04-24T07:24:37.911Z,171.30
2018-04-24T07:25:37.795Z,176.20
2018-04-24T07:26:37.933Z,188.40
2018-04-24T07:27:37.945Z,170.70
2018-04-24T07:28:37.831Z,182.40
2018-04-24T07:29:37.955Z,195.80
2018-04-24T07:30:37.860Z,187.30
2018-04-24T07:31:38.001Z,191.90
2018-04-24T07:32:38.018Z,174.10
2018-04-24T07:33:38.028Z,191.20
2018-04-24T07:34:38.078Z,174.20
2018-04-24T07:35:38.058Z,191.00
2018-04-24T07:36:38.073Z,184.60
2018-04-24T07:37:37.971Z,166.70
2018-04-24T07:38:37.973Z,174.20
2018-04-24T07:39:37.999Z,170.10
2018-04-24T07:40:38.279Z,188.60
2018-04-24T07:41:38.140Z,160.40
2018-04-24T07:42:38.153Z,141.40
2018-04-24T07:43:38.040Z,164.80
2018-04-24T07:44:38.065Z,156.80
2018-04-24T07:45:38.233Z,147.90
2018-04-24T07:46:38.159Z,151.90
2018-04-24T07:47:38.223Z,158.70
2018-04-24T07:48:38.118Z,141.80
2018-04-24T07:49:38.255Z,142.60
2018-04-24T07:50:38.245Z,136.60
2018-04-24T07:51:38.286Z,139.80
2018-04-24T07:52:38.168Z,145.40
2018-04-24T07:53:38.307Z,137.20
2018-04-24T07:54:38.194Z,142.90
2018-04-24T07:55:38.484Z,149.00
2018-04-24T07:56:38.239Z,159.50
2018-04-24T07:57:38.240Z,154.40
2018-04-24T07:58:38.262Z,152.10
2018-04-24T07:59:38.284Z,143.90
2018-04-24T08:00:38.388Z,134.50
2018-04-24T08:01:38.298Z,141.60
2018-04-24T08:02:38.428Z,135.60
2018-04-24T08:03:38.442Z,136.20
2018-04-24T08:04:38.456Z,144.30
2018-04-24T08:05:38.453Z,137.50
2018-04-24T08:06:38.360Z,138.10
2018-04-24T08:07:38.499Z,141.80
2018-04-24T08:08:38.386Z,141.50
2018-04-24T08:09:38.394Z,143.60
2018-04-24T08:10:38.414Z,142.40
2018-04-24T08:11:38.655Z,141.50
2018-04-24T08:12:38.447Z,141.80
2018-04-24T08:13:38.467Z,142.70
2018-04-24T08:14:38.481Z,138.80
2018-04-24T08:15:38.607Z,144.30
2018-04-24T08:16:38.729Z,146.30
2018-04-24T08:17:38.607Z,148.80
2018-04-24T08:18:38.529Z,139.70
2018-04-24T08:19:38.534Z,140.10
2018-04-24T08:20:38.561Z,143.70
2018-04-24T08:21:38.692Z,139.60
2018-04-24T08:22:38.689Z,129.60
2018-04-24T08:23:38.719Z,138.30
2018-04-24T08:24:38.730Z,146.40
2018-04-24T08:25:38.631Z,155.90
2018-04-24T08:26:38.757Z,145.00
2018-04-24T08:27:38.657Z,155.40
2018-04-24T08:28:38.759Z,159.70
2018-04-24T08:29:38.680Z,156.00
2018-04-24T08:30:38.685Z,152.40
2018-04-24T08:31:38.707Z,151.20
2018-04-24T08:32:38.713Z,148.90
2018-04-24T08:33:38.743Z,147.40
2018-04-24T08:34:38.846Z,142.70
2018-04-24T08:35:38.754Z,151.90
2018-04-24T08:36:38.770Z,145.70
2018-04-24T08:37:38.910Z,149.60
2018-04-24T08:38:38.802Z,139.40
2018-04-24T08:39:38.924Z,134.90
2018-04-24T08:40:38.824Z,140.70
2018-04-24T08:41:38.842Z,143.90
2018-04-24T08:42:38.851Z,136.80
2018-04-24T08:43:38.874Z,132.20
2018-04-24T08:44:38.981Z,130.00
2018-04-24T08:45:38.909Z,128.30
2018-04-24T08:46:38.917Z,136.10
2018-04-24T08:47:39.052Z,128.10
2018-04-24T08:48:38.938Z,127.80
2018-04-24T08:49:39.178Z,125.50
2018-04-24T08:50:38.963Z,123.40
2018-04-24T08:51:39.106Z,116.20
2018-04-24T08:52:39.005Z,118.60
2018-04-24T08:53:39.006Z,118.90
2018-04-24T08:54:39.136Z,119.10
2018-04-24T08:55:39.161Z,119.20
2018-04-24T08:56:39.174Z,114.60
2018-04-24T08:57:39.077Z,117.30
2018-04-24T08:58:39.084Z,114.80
2018-04-24T08:59:39.199Z,113.10
2018-04-24T09:00:39.112Z,115.80
2018-04-24T09:01:39.121Z,108.70
2018-04-24T09:02:39.140Z,109.20
2018-04-24T09:03:39.145Z,108.70
2018-04-24T09:04:39.269Z,106.10
2018-04-24T09:05:39.173Z,102.30
2018-04-24T09:06:39.314Z,102.30
2018-04-24T09:07:39.201Z,100.20
2018-04-24T09:08:39.250Z,96.80
2018-04-24T09:09:39.345Z,100.20
2018-04-24T09:10:39.372Z,101.30
2018-04-24T09:11:39.272Z,99.20
2018-04-24T09:12:39.401Z,101.90
2018-04-24T09:13:39.417Z,101.90
2018-04-24T09:14:39.527Z,98.40
2018-04-24T09:15:39.323Z,97.60
2018-04-24T09:16:39.459Z,106.50
2018-04-24T09:17:39.347Z,107.40
2018-04-24T09:18:39.360Z,107.60
2018-04-24T09:19:39.597Z,106.10
2018-04-24T09:20:39.514Z,106.70
2018-04-24T09:21:39.526Z,107.50
2018-04-24T09:22:39.417Z,105.90
2018-04-24T09:23:39.438Z,104.20
2018-04-24T09:24:39.548Z,102.70
2018-04-24T09:25:39.461Z,103.60
2018-04-24T09:26:39.477Z,100.90
2018-04-24T09:27:39.611Z,101.30
2018-04-24T09:28:39.495Z,98.00
2018-04-24T09:29:39.519Z,94.20
2018-04-24T09:30:39.625Z,94.70
2018-04-24T09:31:39.664Z,90.70
2018-04-24T09:32:39.551Z,86.40
2018-04-24T09:33:39.715Z,82.90
2018-04-24T09:34:39.707Z,87.40
2018-04-24T09:35:39.824Z,85.60
2018-04-24T09:36:39.621Z,87.40
2018-04-24T09:37:39.619Z,84.10
2018-04-24T09:38:39.766Z,84.00
2018-04-24T09:39:39.655Z,84.30
2018-04-24T09:40:39.894Z,81.30
2018-04-24T09:41:39.686Z,83.20
2018-04-24T09:42:39.823Z,80.20
2018-04-24T09:43:39.715Z,79.20
2018-04-24T09:44:39.729Z,81.20
2018-04-24T09:45:39.964Z,79.30
2018-04-24T09:46:39.757Z,79.30
2018-04-24T09:47:39.891Z,74.70
2018-04-24T09:48:39.781Z,75.30
2018-04-24T09:49:39.806Z,76.90
2018-04-24T09:50:39.919Z,71.50
2018-04-24T09:51:39.943Z,72.10
2018-04-24T09:52:39.959Z,70.40
2018-04-24T09:53:39.846Z,70.60
2018-04-24T09:54:39.868Z,67.50
2018-04-24T09:55:39.977Z,70.50
2018-04-24T09:56:39.889Z,69.90
2018-04-24T09:57:40.029Z,70.90
2018-04-24T09:58:40.045Z,70.60
2018-04-24T09:59:40.056Z,71.20
2018-04-24T10:00:40.057Z,71.40
2018-04-24T10:01:40.085Z,70.40
2018-04-24T10:02:39.984Z,70.70
2018-04-24T10:03:39.990Z,66.40
2018-04-24T10:04:40.135Z,70.30
2018-04-24T10:05:40.247Z,66.80
2018-04-24T10:06:40.159Z,66.50
2018-04-24T10:07:40.053Z,65.30
2018-04-24T10:08:40.060Z,63.40
2018-04-24T10:09:40.199Z,61.80
2018-04-24T10:10:40.189Z,60.20
2018-04-24T10:11:40.228Z,61.00
2018-04-24T10:12:40.114Z,56.30
2018-04-24T10:13:40.399Z,55.30
2018-04-24T10:14:40.152Z,57.70
2018-04-24T10:15:40.388Z,57.40
2018-04-24T10:16:40.172Z,56.10
2018-04-24T10:17:40.318Z,55.60
2018-04-24T10:18:40.198Z,57.00
2018-04-24T10:19:40.346Z,59.00
2018-04-24T10:20:40.360Z,56.40
2018-04-24T10:21:40.246Z,56.90
2018-04-24T10:22:40.267Z,56.50
2018-04-24T10:23:40.276Z,56.30
2018-04-24T10:24:40.288Z,54.10
2018-04-24T10:25:40.418Z,52.40
2018-04-24T10:26:40.448Z,54.70
2018-04-24T10:27:40.340Z,51.20
2018-04-24T10:28:40.474Z,52.40
2018-04-24T10:29:40.375Z,51.50
2018-04-24T10:30:40.499Z,51.20
2018-04-24T10:31:40.407Z,50.30
2018-04-24T10:32:40.538Z,49.90
2018-04-24T10:33:40.449Z,50.20
2018-04-24T10:34:40.566Z,49.90
2018-04-24T10:35:40.616Z,46.80
2018-04-24T10:36:40.595Z,46.10
2018-04-24T10:37:40.483Z,46.20
2018-04-24T10:38:40.506Z,46.10
2018-04-24T10:39:40.521Z,45.80
2018-04-24T10:40:40.758Z,46.70
2018-04-24T10:41:40.545Z,44.40
2018-04-24T10:42:40.567Z,46.40
2018-04-24T10:43:40.575Z,44.60
2018-04-24T10:44:40.717Z,43.30
2018-04-24T10:45:40.731Z,38.70
2018-04-24T10:46:40.751Z,38.10
2018-04-24T10:47:40.764Z,39.70
2018-04-24T10:48:40.704Z,35.70
2018-04-24T10:49:40.681Z,36.10
2018-04-24T10:50:40.917Z,34.30
2018-04-24T10:51:40.815Z,35.20
2018-04-24T10:52:40.723Z,33.50
2018-04-24T10:53:40.746Z,33.10
2018-04-24T10:54:40.756Z,33.90
2018-04-24T10:55:41.000Z,35.00
2018-04-24T10:56:40.917Z,33.80
2018-04-24T10:57:40.808Z,33.80
2018-04-24T10:58:40.953Z,34.80
2018-04-24T10:59:40.847Z,33.00
2018-04-24T11:00:40.982Z,32.60
2018-04-24T11:01:40.887Z,32.80
2018-04-24T11:02:41.021Z,32.60
2018-04-24T11:03:41.040Z,30.40
2018-04-24T11:04:40.938Z,30.80
2018-04-24T11:05:41.050Z,33.20
2018-04-24T11:06:40.977Z,32.10
2018-04-24T11:07:41.110Z,32.60
2018-04-24T11:08:40.998Z,29.90
2018-04-24T11:09:41.032Z,32.00
2018-04-24T11:10:41.262Z,31.10
2018-04-24T11:11:41.180Z,29.60
2018-04-24T11:12:41.081Z,29.60
2018-04-24T11:13:41.218Z,28.40
2018-04-24T11:14:41.237Z,30.80
2018-04-24T11:15:41.240Z,28.60
2018-04-24T11:16:41.273Z,28.80
2018-04-24T11:17:41.291Z,29.20
2018-04-24T11:18:41.309Z,29.00
2018-04-24T11:19:41.216Z,29.40
2018-04-24T11:20:41.323Z,30.60
2018-04-24T11:21:41.254Z,31.60
2018-04-24T11:22:41.350Z,32.70
2018-04-24T11:23:41.405Z,32.50
2018-04-24T11:24:41.424Z,33.60
2018-04-24T11:25:41.545Z,35.80
2018-04-24T11:26:41.386Z,34.60
2018-04-24T11:27:41.358Z,37.10
2018-04-24T11:28:41.382Z,38.50
2018-04-24T11:29:41.520Z,42.60
2018-04-24T11:30:41.526Z,47.20
2018-04-24T11:31:41.432Z,39.50
2018-04-24T11:32:41.580Z,32.30
2018-04-24T11:33:41.597Z,30.40
2018-04-24T11:34:41.492Z,31.40
2018-04-24T11:35:43.738Z,32.30
2018-04-24T11:36:41.569Z,31.30
2018-04-24T11:37:41.561Z,31.40
2018-04-24T11:38:41.583Z,34.00
2018-04-24T11:39:41.719Z,32.30
2018-04-24T11:40:41.716Z,31.10
2018-04-24T11:41:41.664Z,29.70
2018-04-24T11:42:41.779Z,29.80
2018-04-24T11:43:41.681Z,27.90
2018-04-24T11:44:41.693Z,28.70
2018-04-24T11:45:41.940Z,30.40
2018-04-24T11:46:41.858Z,29.90
2018-04-24T11:47:41.880Z,27.70
2018-04-24T11:48:41.901Z,26.10
2018-04-24T11:49:41.839Z,27.40
2018-04-24T11:50:41.914Z,27.30
2018-04-24T11:51:41.963Z,28.30
2018-04-24T11:52:41.987Z,28.30
2018-04-24T11:53:41.893Z,27.20
2018-04-24T11:54:42.028Z,27.40
2018-04-24T11:55:42.148Z,28.80
2018-04-24T11:56:41.952Z,27.90
2018-04-24T11:57:41.968Z,27.40
2018-04-24T11:58:41.994Z,29.00
2018-04-24T11:59:42.011Z,27.10
2018-04-24T12:00:42.143Z,28.90
2018-04-24T12:01:42.065Z,28.70
2018-04-24T12:02:42.201Z,29.10
2018-04-24T12:03:42.223Z,29.20
2018-04-24T12:04:42.247Z,29.10
2018-04-24T12:05:42.244Z,29.10
2018-04-24T12:06:42.169Z,27.80
2018-04-24T12:07:42.182Z,28.60
2018-04-24T12:08:42.211Z,28.60
2018-04-24T12:09:42.353Z,28.40
2018-04-24T12:10:42.471Z,26.90
2018-04-24T12:11:42.267Z,31.90
2018-04-24T12:12:42.300Z,30.10
2018-04-24T12:13:42.319Z,29.20
2018-04-24T12:14:42.460Z,29.10
2018-04-24T12:15:42.635Z,28.10
2018-04-24T12:16:42.503Z,29.10
2018-04-24T12:17:42.397Z,28.50
2018-04-24T12:18:42.545Z,28.80
2018-04-24T12:19:42.569Z,28.40
2018-04-24T12:20:42.574Z,29.50
2018-04-24T12:21:42.487Z,28.30
2018-04-24T12:22:42.509Z,28.20
2018-04-24T12:23:42.651Z,28.10
2018-04-24T12:24:42.673Z,32.10
2018-04-24T12:25:42.699Z,31.40
2018-04-24T12:26:42.704Z,31.20
2018-04-24T12:27:42.737Z,31.40
2018-04-24T12:28:42.631Z,34.70
2018-04-24T12:29:42.663Z,35.20
2018-04-24T12:30:42.674Z,34.90
2018-04-24T12:31:42.802Z,36.80
2018-04-24T12:32:42.843Z,36.40
2018-04-24T12:33:42.868Z,35.10
2018-04-24T12:34:42.764Z,32.70
2018-04-24T12:35:42.910Z,32.60
2018-04-24T12:36:42.902Z,32.80
2018-04-24T12:37:42.949Z,30.60
2018-04-24T12:38:42.843Z,31.70
2018-04-24T12:39:42.989Z,33.10
2018-04-24T12:40:43.010Z,33.60
2018-04-24T12:41:43.006Z,31.50
2018-04-24T12:42:42.933Z,31.20
2018-04-24T12:43:42.945Z,31.70
2018-04-24T12:44:43.091Z,30.60
2018-04-24T12:45:43.111Z,31.40
2018-04-24T12:46:43.112Z,30.70
2018-04-24T12:47:43.154Z,32.30
2018-04-24T12:48:43.039Z,31.90
2018-04-24T12:49:43.077Z,33.60
2018-04-24T12:50:43.215Z,33.70